SBNTGOOY

Guest
Details From SBNT - Augusto Severo
To GOOY - Dakar Leopold Sedar Senghor Intl
Flight Number -
Tags generated
Created
Modified
Stats Distance 1,755 nm / 3,251 km
Max Altitude 35,000 ft / 10,668 m
Waypoints 14
Social Downloads 3
Likes 0
Share

Download

Looking for another format? Having issues loading an existing format? Contact us
Advertisement - Login to hide

Notes

Basic altitude profile: - Ascent Rate: 2500ft/min - Ascent Speed: 250kts - Cruise Altitude: 35000ft - Cruise Speed: 420kts - Descent Rate: 1500ft/min - Descent Speed: 250kts Options: - Use NATs: yes - Use PACOTS: yes - Use low airways: yes - Use high airways: yes

Route

SBNT NTL W40 FNO UN857 NOISE UL375 DIGOR KODOS UA302 INIRO GOOY

ID Type Via Altitude (ft/m) Position (lat/lon) Dist (leg/tot) Name
O SBNT APT - 0 / 0 -5.91175 / -35.24771 - / 0 nm Augusto Severo
NTL VOR - 0 / 0 -5.90832 / -35.24858 0 / 0 nm NATAL VOR-DME
OGPER FIX W40 (AWY-LO) 13,300 / 4,054 -5.51767 / -34.70533 40 / 40 nm
FNO VOR W40 (AWY-LO) 23,500 / 7,163 -3.87020 / -32.42932 168 / 208 nm FERNANDO VOR-DME
NEURA FIX UN857 (AWY-HI) 35,000 / 10,668 -0.93633 / -30.91417 198 / 406 nm
CLOVE FIX UN857 (AWY-HI) 35,000 / 10,668 1.09517 / -29.86083 137 / 544 nm
NOISE FIX UN857 (AWY-HI) 35,000 / 10,668 1.39450 / -29.70917 20 / 564 nm
DIGOR FIX UL375 (AWY-HI) 35,000 / 10,668 0.66667 / -28.66667 76 / 640 nm
KODOS FIX - 35,000 / 10,668 1.20300 / -26.21700 150 / 791 nm
ASOBU FIX UA302 (AWY-HI) 35,000 / 10,668 4.35361 / -24.22667 223 / 1015 nm
LIROL FIX UA302 (AWY-HI) 35,000 / 10,668 6.34500 / -22.97500 141 / 1156 nm
TAROT FIX UA302 (AWY-HI) 35,000 / 10,668 11.46500 / -19.66667 364 / 1521 nm
INIRO FIX UA302 (AWY-HI) 23,500 / 7,163 13.33194 / -18.42778 133 / 1654 nm
O GOOY APT - 0 / 0 14.73971 / -17.49023 100 / 1755 nm Dakar Leopold Sedar Senghor Intl

Altitude Profile

Advertisement - Login to hide

Weather


0- 5 10 15 20 25 30 35+ Temperature / °C

Clouds and Precipitation
Forecast for 2020-10-27 18:00 UTC. Updated 2 hours ago

Ground ~20,000 ft ~40,000 ft Winds

SBNT

Details ICAO SBNT
Name Natal Augusto Severo Air Base
Region Brazil
Timezone America/Fortaleza (UTC-3.0)
Stats Elevation 171 ft / 52 m (AMSL)
Location -5.911710° -35.247700°
Runways 3
Magnetic Variation 21.269° W

METAR

SBNT 271600Z 09011KT 9999 BKN025 30/22 Q1010

Decode

TAF

TAF SBNT 270811Z 2712/2724 10010KT 9999 BKN023 TX30/2716Z TN26/2724Z RMK PHI

Decode

Departure Runways

ID Width Length Bearing (true/mag) Surface Threshold Overrun Markings Lighting
12 148 ft / 45 m 5,993 ft / 1,827 m 99.04° / 120.31° ASPHALT 0 ft / 0 m 0 ft / 0 m PREC-APP EDGE THRESHOLD
16L 148 ft / 45 m 8,545 ft / 2,604 m 141.11° / 162.38° ASPHALT 0 ft / 0 m 279 ft / 85 m PREC-APP CENTERLINE EDGE THRESHOLD REIL-OMNI
16R 148 ft / 45 m 5,924 ft / 1,806 m 141.20° / 162.47° ASPHALT 0 ft / 0 m 0 ft / 0 m PREC-APP EDGE THRESHOLD
30 148 ft / 45 m 5,993 ft / 1,827 m 279.04° / 300.31° ASPHALT 0 ft / 0 m 0 ft / 0 m PREC-APP EDGE THRESHOLD
34L 148 ft / 45 m 5,924 ft / 1,806 m 321.20° / 342.47° ASPHALT 0 ft / 0 m 1,335 ft / 407 m PREC-APP EDGE THRESHOLD
34R 148 ft / 45 m 8,545 ft / 2,604 m 321.11° / 342.38° ASPHALT 0 ft / 0 m 197 ft / 60 m PREC-APP CENTERLINE EDGE THRESHOLD REIL-OMNI

GOOY

Details ICAO GOOY (DKR)
Name Dakar - Leopold Sedar Senghor Intl
Region Senegal
Timezone Africa/Dakar (UTC+0.0)
Stats Elevation 84 ft / 26 m (AMSL)
Location 14.740100° -17.490400°
Runways 2
Magnetic Variation 7.023° W

METAR

GOOY 271700Z 32004KT CAVOK 32/24 Q1009

Decode

TAF

TAF GOOY 271130Z 2712/2818 02008KT 8000 NSC= TAF GOBD 271130Z 2712/2818 VRB05KT 8000 NSC

Decode

Destination Runways

ID Width Length Bearing (true/mag) Surface Threshold Overrun Markings Lighting
03 98 ft / 30 m 4,916 ft / 1,498 m 22.33° / 29.35° ASPHALT 0 ft / 0 m 98 ft / 30 m APP
18 148 ft / 45 m 11,483 ft / 3,500 m 172.61° / 179.63° ASPHALT 525 ft / 160 m 220 ft / 67 m APP EDGE THRESHOLD
21 98 ft / 30 m 4,916 ft / 1,498 m 202.33° / 209.35° ASPHALT 0 ft / 0 m 1,591 ft / 485 m APP
36 148 ft / 45 m 11,483 ft / 3,500 m 352.61° / 359.63° ASPHALT 0 ft / 0 m 213 ft / 65 m PREC-APP EDGE THRESHOLD ALSF-I

Approach Navaids

Runway Type Ident Frequency Range Bearing (true/mag) Slope Elevation
36 LOC-ILS YF 110.30 MHz 18 nm / 33 km 352.33° / 359.35 ° - 65 ft / 20 m (AMSL)
36 GS YF 110.30 MHz 10 nm / 19 km 353.14° / 0.17 ° 3.01° 73 ft / 22 m (AMSL)
36 DME YF 110.30 MHz 18 nm / 33 km - - 73 ft / 22 m (AMSL)
36 MM MM - - 352.57° / 359.59 ° - 144 ft / 44 m (AMSL)

Popular Alternatives